createdAt,value
2022-08-25T00:09:50.555Z,15.00
2022-08-25T00:12:39.385Z,15.00
2022-08-25T00:15:37.214Z,14.90
2022-08-25T00:21:37.192Z,14.90
2022-08-25T00:27:25.159Z,14.80
2022-08-25T00:30:38.358Z,14.80
2022-08-25T00:37:23.781Z,14.80
2022-08-25T00:40:00.434Z,14.60
2022-08-25T00:45:47.371Z,14.60
2022-08-25T01:08:33.292Z,14.40
2022-08-25T01:14:17.670Z,14.40
2022-08-25T01:16:51.060Z,14.40
2022-08-25T01:19:45.042Z,14.30
2022-08-25T01:26:25.142Z,14.30
2022-08-25T01:41:01.280Z,13.90
2022-08-25T01:51:13.306Z,13.90
2022-08-25T02:01:00.189Z,13.80
2022-08-25T02:04:07.669Z,13.70
2022-08-25T02:45:22.525Z,13.50
2022-08-25T02:52:22.829Z,13.50
2022-08-25T03:01:53.019Z,13.40
2022-08-25T03:09:10.943Z,13.20
2022-08-25T03:30:47.023Z,12.90
2022-08-25T03:36:50.201Z,13.10
2022-08-25T03:43:22.809Z,12.80
2022-08-25T04:23:03.164Z,12.70
2022-08-25T04:25:36.862Z,12.80
2022-08-25T04:28:09.090Z,12.80
2022-08-25T04:42:47.303Z,12.50
2022-08-25T04:49:15.619Z,12.20
2022-08-25T04:51:48.008Z,12.40
2022-08-25T04:54:37.095Z,12.60
2022-08-25T05:00:14.267Z,12.50
2022-08-25T05:02:45.071Z,12.50
2022-08-25T05:05:17.670Z,12.70
2022-08-25T05:07:51.873Z,12.60
2022-08-25T05:10:23.328Z,12.50
2022-08-25T05:12:58.553Z,12.50
2022-08-25T05:15:46.090Z,12.50
2022-08-25T05:45:26.862Z,12.90
2022-08-25T05:48:02.836Z,13.10
2022-08-25T05:56:38.790Z,13.40
2022-08-25T06:15:28.004Z,13.90
2022-08-25T06:18:00.699Z,14.10
2022-08-25T06:20:29.570Z,14.20
2022-08-25T06:22:56.375Z,14.40
2022-08-25T06:25:24.518Z,14.50
2022-08-25T06:27:51.226Z,14.50
2022-08-25T06:30:24.345Z,14.50
2022-08-25T06:32:52.484Z,14.80
2022-08-25T06:35:19.603Z,15.10
2022-08-25T06:37:46.554Z,15.30
2022-08-25T06:40:13.687Z,15.40
2022-08-25T06:42:40.431Z,15.50
2022-08-25T06:45:07.430Z,15.60
2022-08-25T06:47:57.429Z,15.70
2022-08-25T06:56:52.815Z,15.60
2022-08-25T07:00:05.397Z,15.80
2022-08-25T07:02:38.748Z,16.10
2022-08-25T07:05:13.208Z,16.50
2022-08-25T07:07:47.220Z,16.80
2022-08-25T07:10:34.030Z,16.90
2022-08-25T07:13:14.754Z,17.20
2022-08-25T07:15:45.950Z,17.40
2022-08-25T07:18:18.007Z,17.50
2022-08-25T07:21:08.957Z,17.40
2022-08-25T07:31:20.870Z,17.50
2022-08-25T07:38:34.214Z,17.70
2022-08-25T07:41:57.386Z,18.00
2022-08-25T07:56:12.521Z,18.30
2022-08-25T08:02:20.465Z,18.50
2022-08-25T08:16:15.105Z,18.70
2022-08-25T08:19:33.663Z,18.60
2022-08-25T08:26:20.688Z,19.40
2022-08-25T08:33:16.506Z,19.00
2022-08-25T08:35:54.043Z,19.10
2022-08-25T08:46:03.148Z,19.80
2022-08-25T09:00:00.635Z,19.50
2022-08-25T09:11:11.005Z,20.90
2022-08-25T09:36:45.335Z,20.00
2022-08-25T10:04:18.865Z,20.90
2022-08-25T10:10:59.990Z,21.60
2022-08-25T11:25:36.471Z,21.70
2022-08-25T11:28:22.632Z,22.00
2022-08-25T11:30:50.355Z,22.00
2022-08-25T11:33:17.615Z,22.30
2022-08-25T11:35:57.182Z,21.80
2022-08-25T11:38:43.639Z,22.50
2022-08-25T11:41:23.833Z,24.30
2022-08-25T11:44:15.928Z,23.70
2022-08-25T11:46:48.282Z,23.80
2022-08-25T11:49:42.415Z,23.20
2022-08-25T11:52:35.643Z,22.00
2022-08-25T11:55:25.708Z,21.90
2022-08-25T11:57:53.987Z,21.80
2022-08-25T12:00:37.096Z,21.80
2022-08-25T12:03:31.815Z,21.80
2022-08-25T12:06:17.193Z,22.50
2022-08-25T12:09:00.590Z,22.20
2022-08-25T12:11:43.753Z,22.40
2022-08-25T12:14:22.559Z,22.00
2022-08-25T12:16:56.181Z,22.00
2022-08-25T12:19:34.968Z,22.60
2022-08-25T12:22:03.663Z,22.30
2022-08-25T12:24:47.959Z,22.10
2022-08-25T12:27:40.204Z,22.90
2022-08-25T12:30:28.966Z,22.40
2022-08-25T12:33:06.718Z,22.70
2022-08-25T12:35:56.823Z,22.00
2022-08-25T12:38:32.715Z,23.00
2022-08-25T12:41:09.046Z,22.70
2022-08-25T12:43:45.999Z,22.60
2022-08-25T12:50:55.425Z,22.50
2022-08-25T13:01:48.068Z,23.00
2022-08-25T13:04:55.642Z,25.20
2022-08-25T13:11:55.061Z,23.90
2022-08-25T13:14:37.927Z,23.10
2022-08-25T13:27:26.724Z,22.90
2022-08-25T13:30:22.076Z,23.20
2022-08-25T13:33:39.551Z,24.10
2022-08-25T13:36:58.707Z,23.60
2022-08-25T13:50:39.212Z,23.40
2022-08-25T13:53:14.808Z,23.70
2022-08-25T13:55:51.039Z,25.40
2022-08-25T13:58:24.317Z,24.40
2022-08-25T14:01:22.927Z,23.90
2022-08-25T14:04:27.211Z,23.50
2022-08-25T14:07:14.304Z,23.60
2022-08-25T14:09:45.350Z,23.30
2022-08-25T14:12:33.066Z,24.10
2022-08-25T14:15:02.188Z,24.30
2022-08-25T14:17:38.187Z,25.40
2022-08-25T14:20:28.957Z,24.20
2022-08-25T14:23:02.170Z,24.60
2022-08-25T14:25:28.939Z,25.80
2022-08-25T14:28:07.518Z,26.10
2022-08-25T14:30:51.919Z,25.50
2022-08-25T14:33:19.739Z,25.60
2022-08-25T14:35:50.469Z,25.60
2022-08-25T14:38:17.859Z,25.50
2022-08-25T14:40:44.619Z,25.20
2022-08-25T14:43:12.130Z,25.20
2022-08-25T14:45:41.520Z,26.40
2022-08-25T14:48:10.449Z,26.80
2022-08-25T14:50:37.461Z,26.80
2022-08-25T14:53:08.007Z,26.70
2022-08-25T14:55:34.916Z,25.70
2022-08-25T14:58:02.182Z,26.20
2022-08-25T15:00:29.101Z,26.50
2022-08-25T15:02:55.757Z,26.20
2022-08-25T15:05:26.969Z,26.20
2022-08-25T15:08:13.612Z,25.50
2022-08-25T15:10:40.543Z,25.90
2022-08-25T15:13:07.237Z,26.50
2022-08-25T15:15:34.937Z,27.00
2022-08-25T15:18:01.632Z,27.10
2022-08-25T15:20:28.325Z,27.20
2022-08-25T15:22:55.821Z,27.20
2022-08-25T15:25:22.776Z,26.70
2022-08-25T15:27:51.111Z,26.60
2022-08-25T15:30:17.842Z,26.90
2022-08-25T15:32:45.166Z,26.90
2022-08-25T15:35:15.489Z,27.40
2022-08-25T15:37:42.205Z,27.30
2022-08-25T15:40:09.368Z,26.70
2022-08-25T15:42:37.840Z,26.30
2022-08-25T15:45:10.360Z,25.90
2022-08-25T15:47:37.159Z,26.00
2022-08-25T15:50:14.174Z,26.40
2022-08-25T15:52:48.715Z,27.00
2022-08-25T15:55:16.340Z,26.70
2022-08-25T15:57:43.045Z,26.20
2022-08-25T16:00:13.653Z,25.90
2022-08-25T16:02:43.486Z,26.20
2022-08-25T16:05:12.280Z,26.20
2022-08-25T16:07:40.201Z,26.20
2022-08-25T16:10:07.913Z,26.20
2022-08-25T16:12:34.602Z,26.30
2022-08-25T16:15:01.657Z,26.20
2022-08-25T16:17:28.312Z,25.90
2022-08-25T16:19:54.950Z,26.50
2022-08-25T16:22:21.626Z,30.20
2022-08-25T16:24:49.013Z,32.60
2022-08-25T16:27:16.031Z,33.50
2022-08-25T16:29:43.805Z,34.40
2022-08-25T16:32:12.108Z,33.90
2022-08-25T16:34:40.603Z,33.90
2022-08-25T16:37:07.296Z,33.60
2022-08-25T16:39:34.083Z,32.70
2022-08-25T16:42:00.725Z,31.10
2022-08-25T16:44:27.831Z,30.70
2022-08-25T16:46:55.231Z,30.70
2022-08-25T16:49:24.456Z,29.90
2022-08-25T16:51:52.223Z,29.70
2022-08-25T16:54:43.485Z,28.90
2022-08-25T16:57:10.743Z,28.60
2022-08-25T16:59:37.382Z,29.10
2022-08-25T17:02:04.234Z,29.00
2022-08-25T17:04:32.154Z,28.50
2022-08-25T17:06:59.423Z,28.20
2022-08-25T17:09:26.068Z,27.70
2022-08-25T17:11:56.618Z,27.70
2022-08-25T17:14:23.420Z,27.30
2022-08-25T17:16:54.457Z,27.20
2022-08-25T17:19:21.290Z,26.80
2022-08-25T17:21:50.617Z,27.20
2022-08-25T17:24:17.661Z,27.30
2022-08-25T17:26:46.293Z,26.80
2022-08-25T17:29:12.927Z,27.20
2022-08-25T17:31:40.198Z,27.00
2022-08-25T17:34:12.041Z,27.00
2022-08-25T17:36:39.813Z,26.90
2022-08-25T17:39:07.652Z,27.00
2022-08-25T17:41:34.357Z,26.70
2022-08-25T17:44:04.602Z,26.60
2022-08-25T17:46:31.357Z,26.40
2022-08-25T17:48:58.116Z,26.50
2022-08-25T17:51:25.174Z,26.30
2022-08-25T17:53:52.754Z,26.30
2022-08-25T17:56:20.983Z,26.10
2022-08-25T17:58:47.656Z,26.10
2022-08-25T18:01:19.234Z,25.80
2022-08-25T18:03:46.307Z,25.70
2022-08-25T18:06:15.119Z,25.60
2022-08-25T18:08:43.083Z,25.40
2022-08-25T18:11:09.831Z,25.20
2022-08-25T18:13:37.550Z,25.00
2022-08-25T18:16:04.888Z,24.90
2022-08-25T18:18:34.285Z,24.60
2022-08-25T18:21:01.811Z,24.50
2022-08-25T18:23:28.637Z,24.30
2022-08-25T18:26:00.899Z,24.20
2022-08-25T18:28:28.766Z,24.00
2022-08-25T18:30:55.784Z,23.80
2022-08-25T18:33:22.974Z,23.70
2022-08-25T18:35:49.625Z,23.60
2022-08-25T18:38:34.727Z,23.30
2022-08-25T18:41:05.503Z,23.20
2022-08-25T18:43:33.919Z,23.00
2022-08-25T18:46:04.292Z,22.80
2022-08-25T18:48:34.408Z,22.70
2022-08-25T18:51:04.830Z,22.60
2022-08-25T18:53:37.113Z,22.40
2022-08-25T18:56:12.635Z,22.30
2022-08-25T18:58:42.974Z,22.20
2022-08-25T19:01:16.117Z,22.00
2022-08-25T19:03:45.635Z,21.90
2022-08-25T19:06:20.087Z,21.80
2022-08-25T19:08:54.813Z,21.70
2022-08-25T19:11:26.688Z,21.60
2022-08-25T19:14:19.729Z,21.60
2022-08-25T19:17:01.063Z,21.40
2022-08-25T19:19:32.869Z,21.30
2022-08-25T19:22:16.590Z,21.10
2022-08-25T19:25:13.166Z,21.00
2022-08-25T19:27:47.074Z,20.90
2022-08-25T19:30:18.605Z,20.90
2022-08-25T19:32:56.676Z,20.80
2022-08-25T19:35:37.912Z,20.70
2022-08-25T19:38:33.812Z,20.60
2022-08-25T19:41:10.518Z,20.60
2022-08-25T19:43:55.062Z,20.50
2022-08-25T19:46:32.613Z,20.40
2022-08-25T19:49:08.376Z,20.30
2022-08-25T19:51:43.891Z,20.30
2022-08-25T20:00:37.195Z,20.10
2022-08-25T20:09:39.273Z,19.80
2022-08-25T20:24:39.435Z,19.50
2022-08-25T20:30:12.835Z,19.40
2022-08-25T20:32:44.589Z,19.30
2022-08-25T20:35:17.983Z,19.30
2022-08-25T20:37:49.994Z,19.20
2022-08-25T20:40:25.872Z,19.20
2022-08-25T20:42:57.141Z,19.20
2022-08-25T20:45:31.354Z,19.10
2022-08-25T20:48:02.274Z,19.10
2022-08-25T20:50:36.823Z,18.90
2022-08-25T20:53:10.320Z,18.80
2022-08-25T20:55:47.094Z,18.70
2022-08-25T20:58:16.932Z,18.80
2022-08-25T21:00:48.787Z,18.60
2022-08-25T21:06:50.071Z,18.60
2022-08-25T21:09:31.541Z,18.60
2022-08-25T21:26:58.392Z,18.30
2022-08-25T21:29:58.990Z,18.30
2022-08-25T22:06:03.449Z,18.10
2022-08-25T22:08:44.954Z,18.70
2022-08-25T22:15:08.326Z,19.10
2022-08-25T22:17:44.066Z,19.50
2022-08-25T22:20:16.270Z,19.70
2022-08-25T22:22:44.411Z,19.80
2022-08-25T22:25:14.021Z,19.70
2022-08-25T22:27:44.444Z,19.80
2022-08-25T22:37:48.445Z,19.70
2022-08-25T22:50:15.001Z,19.50
2022-08-25T22:53:19.855Z,19.50
2022-08-25T22:56:19.653Z,19.40
2022-08-25T23:00:02.513Z,19.40
2022-08-25T23:06:45.929Z,19.50
2022-08-25T23:09:17.634Z,19.30
2022-08-25T23:11:48.831Z,19.20
2022-08-25T23:40:34.352Z,18.90
2022-08-25T23:43:13.149Z,18.80
2022-08-25T23:48:41.009Z,18.60
2022-08-25T23:51:48.676Z,18.70
